Aérodrome :
LOGIN :

S'inscrire | Disclaimer

   EN    FR    IT 

 










Légende :    VFR   VFR Marginal   IFR   IFR Intensif   IFR Très Intensif
Visi : 
Plafond : 
>= 8 km
>= 3000ft
5 à 8 km
1000 à 3000 ft
1500m à 5 km
500 à 1000 ft
800 à 1500m
200 à 500 ft
< 800m
< 200 ft
Symboles :   Orages  Brouillard  Fortes neiges  Fortes précipitations  Vent > 20 kt
SIGMETs :   Divers  Orages  Givrage  Turbulence  Onde Orograph.  Cendres Volcan.






- Altitude de l'aérodrome : 529 ft
- Code IATA : CHR


LFLX - Chateauroux

DERNIER METAR :
  • 300930Z AUTO VRB03KT 0550 0500 R21/0750N FG VV/// 09/09 Q1014 BECMG 9999 NSW SCT011 BKN020

METARs EXPIRÉS :
  • 300900Z AUTO VRB03KT 0450 R21/0650N FG VV/// 08/08 Q1014 TEMPO 3000 BR BECMG NSC
  • 300830Z AUTO VRB02KT 0300 R21/0400D FG VV/// 08/08 Q1013 TEMPO 3000 BR BECMG NSC
  • 300800Z AUTO VRB01KT 0300 R21/0375N FG VV/// 07/07 Q1013 TEMPO 3000 BR BECMG NSC
  • 300730Z AUTO VRB02KT 0250 R21/0250N FG VV/// 07/07 Q1013 TEMPO 3000 BR BECMG NSC
  • 300700Z AUTO 22003KT 0400 0350 R21/0650N FG VV/// 06/06 Q1012 TEMPO 0300 FG

TAF AMD TAF LFLX
Valide du 30 à 09h jusqu'au 01 à 12h UTC


300915Z 3009/0112 VRB05KT 0450 FG VV///
BECMG 3009/3011 3000 BR BKN004
BECMG 3011/3013 9999 NSW SCT011 BKN020
BECMG 3019/3021 22010KT
BECMG 3022/3024 21015G25KT -RA BKN014
PROB40
TEMPO 0102/0110 22020G35KT 4000 RA BKN004 BKN009CB
PROB40
TEMPO 0110/0112 3000 BR BKN002



MET'MAP, la Météo Aéronautique d'un coup d'oeil ! - Copyright ORBIFLY Décembre 2007 - Disclaimer

ORBIFLY MET'MAP TEAM :

Programmation & Développement : Alexandra Zaïnal
Sur une idée originale de : Baudouin d'Aumeries
Soutien technique & logistique : Manuel Goepfert
Assistance : Marc-Olivier Méhu




SOURCES & CREDITS :

   NOAA